createdAt,value
2022-09-24T00:01:38.487Z,12.00
2022-09-24T00:04:06.523Z,11.90
2022-09-24T00:06:38.188Z,11.90
2022-09-24T00:09:05.153Z,11.90
2022-09-24T00:11:34.158Z,11.90
2022-09-24T00:14:01.049Z,11.90
2022-09-24T00:16:30.418Z,11.90
2022-09-24T00:18:58.165Z,11.80
2022-09-24T00:21:26.227Z,11.80
2022-09-24T00:24:03.041Z,11.80
2022-09-24T00:26:48.020Z,11.80
2022-09-24T00:29:17.969Z,11.80
2022-09-24T00:31:47.124Z,11.80
2022-09-24T00:34:13.765Z,11.80
2022-09-24T00:36:40.304Z,11.80
2022-09-24T00:39:09.287Z,11.80
2022-09-24T00:41:36.838Z,11.70
2022-09-24T00:44:23.325Z,11.70
2022-09-24T00:46:49.895Z,11.70
2022-09-24T00:49:17.744Z,11.70
2022-09-24T00:51:46.697Z,11.70
2022-09-24T00:54:16.591Z,11.60
2022-09-24T00:56:46.366Z,11.60
2022-09-24T00:59:17.254Z,11.60
2022-09-24T01:01:44.731Z,11.60
2022-09-24T01:04:13.727Z,11.60
2022-09-24T01:06:42.480Z,11.60
2022-09-24T01:09:09.362Z,11.60
2022-09-24T01:11:38.998Z,11.60
2022-09-24T01:14:05.493Z,11.50
2022-09-24T01:16:44.656Z,11.50
2022-09-24T01:19:29.893Z,11.50
2022-09-24T01:22:03.905Z,11.50
2022-09-24T01:24:37.276Z,11.50
2022-09-24T01:27:09.902Z,11.50
2022-09-24T01:29:42.069Z,11.40
2022-09-24T01:32:32.183Z,11.40
2022-09-24T01:35:04.944Z,11.40
2022-09-24T01:37:34.181Z,11.40
2022-09-24T01:40:01.704Z,11.40
2022-09-24T01:42:31.949Z,11.40
2022-09-24T01:45:01.712Z,11.40
2022-09-24T01:47:34.973Z,11.40
2022-09-24T01:50:02.926Z,11.40
2022-09-24T01:52:35.473Z,11.30
2022-09-24T01:55:03.550Z,11.30
2022-09-24T01:57:33.953Z,11.30
2022-09-24T02:00:09.828Z,11.30
2022-09-24T02:02:39.588Z,11.20
2022-09-24T02:05:13.059Z,11.20
2022-09-24T02:07:47.219Z,11.20
2022-09-24T02:10:17.703Z,11.10
2022-09-24T02:12:46.279Z,11.10
2022-09-24T02:15:27.793Z,11.10
2022-09-24T02:18:00.192Z,11.10
2022-09-24T02:20:30.642Z,11.10
2022-09-24T02:22:57.360Z,11.10
2022-09-24T02:25:28.169Z,11.10
2022-09-24T02:27:54.845Z,11.10
2022-09-24T02:30:21.455Z,11.10
2022-09-24T02:32:49.467Z,11.10
2022-09-24T02:35:16.379Z,11.00
2022-09-24T02:37:44.372Z,11.00
2022-09-24T02:40:15.688Z,11.00
2022-09-24T02:42:43.304Z,11.00
2022-09-24T02:45:10.168Z,10.90
2022-09-24T02:47:37.467Z,10.90
2022-09-24T02:50:04.381Z,10.90
2022-09-24T02:52:30.954Z,10.90
2022-09-24T02:54:57.512Z,10.80
2022-09-24T02:57:24.071Z,10.80
2022-09-24T02:59:52.674Z,10.80
2022-09-24T03:02:19.311Z,10.70
2022-09-24T03:04:47.076Z,10.70
2022-09-24T03:07:16.056Z,10.70
2022-09-24T03:09:44.817Z,10.60
2022-09-24T03:12:12.615Z,10.60
2022-09-24T03:14:39.329Z,10.60
2022-09-24T03:17:05.834Z,10.50
2022-09-24T03:19:32.339Z,10.50
2022-09-24T03:22:03.594Z,10.50
2022-09-24T03:24:35.069Z,10.50
2022-09-24T03:27:04.082Z,10.50
2022-09-24T03:29:49.002Z,10.40
2022-09-24T03:32:15.513Z,10.40
2022-09-24T03:34:44.404Z,10.40
2022-09-24T03:37:10.926Z,10.40
2022-09-24T03:39:37.422Z,10.40
2022-09-24T03:42:04.061Z,10.30
2022-09-24T03:44:30.576Z,10.30
2022-09-24T03:46:57.226Z,10.30
2022-09-24T03:49:24.351Z,10.30
2022-09-24T03:51:50.884Z,10.20
2022-09-24T03:54:17.392Z,10.20
2022-09-24T03:56:43.923Z,10.20
2022-09-24T03:59:10.884Z,10.20
2022-09-24T04:01:39.731Z,10.20
2022-09-24T04:04:06.297Z,10.20
2022-09-24T04:06:32.932Z,10.20
2022-09-24T04:09:01.718Z,10.20
2022-09-24T04:11:28.785Z,10.20
2022-09-24T04:13:55.305Z,10.10
2022-09-24T04:16:24.153Z,10.10
2022-09-24T04:18:55.690Z,10.00
2022-09-24T04:21:22.194Z,10.00
2022-09-24T04:23:48.806Z,10.00
2022-09-24T04:26:15.320Z,10.00
2022-09-24T04:28:42.001Z,10.00
2022-09-24T04:31:09.030Z,10.00
2022-09-24T04:33:35.610Z,10.10
2022-09-24T04:36:02.227Z,10.10
2022-09-24T04:38:28.810Z,10.00
2022-09-24T04:41:03.780Z,9.90
2022-09-24T04:43:30.303Z,9.90
2022-09-24T04:45:58.794Z,9.80
2022-09-24T04:48:27.629Z,9.70
2022-09-24T04:50:54.242Z,9.70
2022-09-24T04:53:20.765Z,9.80
2022-09-24T04:55:49.755Z,9.70
2022-09-24T04:58:16.271Z,9.80
2022-09-24T05:00:43.157Z,9.80
2022-09-24T05:03:12.017Z,9.80
2022-09-24T05:05:38.564Z,9.70
2022-09-24T05:08:05.130Z,9.60
2022-09-24T05:10:33.160Z,9.60
2022-09-24T05:13:02.270Z,9.70
2022-09-24T05:15:28.995Z,9.70
2022-09-24T05:17:55.499Z,9.70
2022-09-24T05:20:22.170Z,9.70
2022-09-24T05:22:51.380Z,9.70
2022-09-24T05:25:19.267Z,9.70
2022-09-24T05:27:53.082Z,9.60
2022-09-24T05:30:20.673Z,9.60
2022-09-24T05:32:51.832Z,9.60
2022-09-24T05:35:21.298Z,9.50
2022-09-24T05:37:49.610Z,9.50
2022-09-24T05:40:34.706Z,9.50
2022-09-24T05:43:01.666Z,9.50
2022-09-24T05:45:31.347Z,9.50
2022-09-24T05:47:59.936Z,9.50
2022-09-24T05:50:29.169Z,9.50
2022-09-24T05:52:56.006Z,9.50
2022-09-24T05:55:22.512Z,9.50
2022-09-24T05:57:51.234Z,9.50
2022-09-24T06:00:20.256Z,9.60
2022-09-24T06:02:46.790Z,9.60
2022-09-24T06:05:14.857Z,9.60
2022-09-24T06:07:41.491Z,9.70
2022-09-24T06:10:08.293Z,9.70
2022-09-24T06:12:35.000Z,9.70
2022-09-24T06:15:01.865Z,9.80
2022-09-24T06:17:28.713Z,9.70
2022-09-24T06:19:55.609Z,9.80
2022-09-24T06:22:26.276Z,9.80
2022-09-24T06:24:57.440Z,9.80
2022-09-24T06:27:24.172Z,9.80
2022-09-24T06:29:50.722Z,9.70
2022-09-24T06:32:19.670Z,9.70
2022-09-24T06:34:46.297Z,9.80
2022-09-24T06:37:12.955Z,9.80
2022-09-24T06:39:39.475Z,9.80
2022-09-24T06:42:08.196Z,9.90
2022-09-24T06:44:37.475Z,9.90
2022-09-24T06:47:04.164Z,10.00
2022-09-24T06:49:34.261Z,10.00
2022-09-24T06:52:01.686Z,10.10
2022-09-24T06:54:28.406Z,10.00
2022-09-24T06:56:57.398Z,10.00
2022-09-24T06:59:26.511Z,10.00
2022-09-24T07:01:53.119Z,10.10
2022-09-24T07:04:19.781Z,10.10
2022-09-24T07:07:04.912Z,10.10
2022-09-24T07:09:31.657Z,10.20
2022-09-24T07:11:58.730Z,10.20
2022-09-24T07:14:25.270Z,10.20
2022-09-24T07:16:54.099Z,10.20
2022-09-24T07:19:20.702Z,10.30
2022-09-24T07:21:49.471Z,10.30
2022-09-24T07:24:16.003Z,10.40
2022-09-24T07:26:42.618Z,10.50
2022-09-24T07:29:09.410Z,10.70
2022-09-24T07:31:36.405Z,10.80
2022-09-24T07:34:05.255Z,11.00
2022-09-24T07:36:31.897Z,11.10
2022-09-24T07:38:58.590Z,11.20
2022-09-24T07:41:25.754Z,11.30
2022-09-24T07:43:52.417Z,11.50
2022-09-24T07:46:20.075Z,11.60
2022-09-24T07:48:48.307Z,11.60
2022-09-24T07:51:15.040Z,11.70
2022-09-24T07:53:41.736Z,12.10
2022-09-24T07:56:08.455Z,13.30
2022-09-24T07:58:37.251Z,14.90
2022-09-24T08:01:03.841Z,16.30
2022-09-24T08:03:30.550Z,18.30
2022-09-24T08:05:57.201Z,18.40
2022-09-24T08:08:23.856Z,18.20
2022-09-24T08:10:50.604Z,17.50
2022-09-24T08:13:17.218Z,16.50
2022-09-24T08:15:43.827Z,15.80
2022-09-24T08:18:10.450Z,15.30
2022-09-24T08:20:37.767Z,14.90
2022-09-24T08:23:05.162Z,14.50
2022-09-24T08:25:31.805Z,14.30
2022-09-24T08:28:02.441Z,14.20
2022-09-24T08:30:30.877Z,14.20
2022-09-24T08:32:57.934Z,14.10
2022-09-24T08:35:24.557Z,14.10
2022-09-24T08:37:53.613Z,14.10
2022-09-24T08:40:22.018Z,14.10
2022-09-24T08:43:11.646Z,14.10
2022-09-24T08:46:01.464Z,14.10
2022-09-24T08:48:33.183Z,14.10
2022-09-24T08:51:02.106Z,14.00
2022-09-24T08:53:33.767Z,14.00
2022-09-24T08:56:01.268Z,13.90
2022-09-24T08:58:30.133Z,13.90
2022-09-24T09:01:06.472Z,13.90
2022-09-24T09:03:33.026Z,13.90
2022-09-24T09:06:02.819Z,14.00
2022-09-24T09:09:13.638Z,14.00
2022-09-24T09:11:42.095Z,14.00
2022-09-24T09:14:11.471Z,14.10
2022-09-24T09:16:49.215Z,14.10
2022-09-24T09:19:18.716Z,14.20
2022-09-24T09:21:53.558Z,14.30
2022-09-24T09:24:23.314Z,14.40
2022-09-24T09:26:51.379Z,14.50
2022-09-24T09:29:18.001Z,14.60
2022-09-24T09:32:03.122Z,14.60
2022-09-24T09:34:36.728Z,14.70
2022-09-24T09:37:03.227Z,14.80
2022-09-24T09:39:37.110Z,14.90
2022-09-24T09:42:03.713Z,15.00
2022-09-24T09:44:31.179Z,15.10
2022-09-24T09:47:06.789Z,15.10
2022-09-24T09:49:36.090Z,15.10
2022-09-24T09:52:04.370Z,15.20
2022-09-24T09:54:37.678Z,15.30
2022-09-24T09:57:06.357Z,15.40
2022-09-24T09:59:35.477Z,15.60
2022-09-24T10:02:02.204Z,15.60
2022-09-24T10:04:29.225Z,15.70
2022-09-24T10:07:08.122Z,15.70
2022-09-24T10:09:35.174Z,15.70
2022-09-24T10:12:24.176Z,15.80
2022-09-24T10:14:57.861Z,15.90
2022-09-24T10:17:27.396Z,16.00
2022-09-24T10:19:56.655Z,16.10
2022-09-24T10:22:24.821Z,16.10
2022-09-24T10:24:53.742Z,16.20
2022-09-24T10:27:24.152Z,16.30
2022-09-24T10:30:12.037Z,16.40
2022-09-24T10:32:39.142Z,16.40
2022-09-24T10:35:19.414Z,16.40
2022-09-24T10:37:53.629Z,16.30
2022-09-24T10:40:24.239Z,16.40
2022-09-24T10:42:59.456Z,16.50
2022-09-24T10:45:44.160Z,16.70
2022-09-24T10:48:26.812Z,16.80
2022-09-24T10:51:12.103Z,16.70
2022-09-24T10:53:53.207Z,16.80
2022-09-24T10:56:21.854Z,16.80
2022-09-24T10:59:00.013Z,16.90
2022-09-24T11:01:29.437Z,17.00
2022-09-24T11:04:18.014Z,17.10
2022-09-24T11:07:14.327Z,17.20
2022-09-24T11:10:01.995Z,17.30
2022-09-24T11:12:35.198Z,17.40
2022-09-24T11:15:14.217Z,17.50
2022-09-24T11:17:40.722Z,17.60
2022-09-24T11:20:18.021Z,17.60
2022-09-24T11:22:56.956Z,17.60
2022-09-24T11:25:26.347Z,17.60
2022-09-24T11:27:59.982Z,17.70
2022-09-24T11:30:33.895Z,17.80
2022-09-24T11:33:01.580Z,17.80
2022-09-24T11:35:46.875Z,17.90
2022-09-24T11:38:19.872Z,17.90
2022-09-24T11:40:53.119Z,18.00
2022-09-24T11:43:19.972Z,18.10
2022-09-24T11:45:51.081Z,18.20
2022-09-24T11:48:20.719Z,18.30
2022-09-24T11:51:05.815Z,18.40
2022-09-24T11:53:50.900Z,18.50
2022-09-24T11:56:20.122Z,18.50
2022-09-24T11:58:46.615Z,18.60
2022-09-24T12:01:17.834Z,18.60
2022-09-24T12:03:47.138Z,18.60
2022-09-24T12:06:17.381Z,18.50
2022-09-24T12:08:48.917Z,18.50
2022-09-24T12:11:15.432Z,18.50
2022-09-24T12:13:53.811Z,18.40
2022-09-24T12:16:33.199Z,18.40
2022-09-24T12:19:03.585Z,18.40
2022-09-24T12:21:32.298Z,18.40
2022-09-24T12:24:03.710Z,18.40
2022-09-24T12:26:35.992Z,18.50
2022-09-24T12:29:27.386Z,18.50
2022-09-24T12:32:31.241Z,18.60
2022-09-24T12:35:03.771Z,18.60
2022-09-24T12:37:33.003Z,18.50
2022-09-24T12:40:08.708Z,18.60
2022-09-24T12:42:37.925Z,18.60
2022-09-24T12:45:04.905Z,18.70
2022-09-24T12:47:33.673Z,18.70
2022-09-24T12:50:02.166Z,18.70
2022-09-24T12:52:34.173Z,18.80
2022-09-24T12:55:04.595Z,19.00
2022-09-24T12:57:54.578Z,19.00
2022-09-24T13:00:38.988Z,19.00
2022-09-24T13:03:25.443Z,19.00
2022-09-24T13:05:52.066Z,18.90
2022-09-24T13:08:22.091Z,18.80
2022-09-24T13:10:56.292Z,18.80
2022-09-24T13:13:25.526Z,18.90
2022-09-24T13:16:18.258Z,18.80
2022-09-24T13:18:52.386Z,18.80
2022-09-24T13:21:24.161Z,18.70
2022-09-24T13:23:51.200Z,18.70
2022-09-24T13:26:20.504Z,18.70
2022-09-24T13:28:48.627Z,18.70
2022-09-24T13:31:21.405Z,18.80
2022-09-24T13:34:17.548Z,18.80
2022-09-24T13:36:44.037Z,18.90
2022-09-24T13:39:16.702Z,18.90
2022-09-24T13:42:01.387Z,19.00
2022-09-24T13:44:31.363Z,19.10
2022-09-24T13:47:06.107Z,19.00
2022-09-24T13:49:36.367Z,19.00
2022-09-24T13:52:17.404Z,19.00
2022-09-24T13:54:50.534Z,19.00
2022-09-24T13:57:21.695Z,19.10
2022-09-24T13:59:48.223Z,19.10
2022-09-24T14:02:22.558Z,19.00
2022-09-24T14:04:53.188Z,19.00
2022-09-24T14:07:22.877Z,19.00
2022-09-24T14:09:51.269Z,18.90
2022-09-24T14:12:21.838Z,18.90
2022-09-24T14:14:53.379Z,18.90
2022-09-24T14:17:20.124Z,18.90
2022-09-24T14:19:47.799Z,18.90
2022-09-24T14:22:25.375Z,18.90
2022-09-24T14:24:51.920Z,18.80
2022-09-24T14:27:21.122Z,18.80
2022-09-24T14:29:54.680Z,18.80
2022-09-24T14:32:27.117Z,18.80
2022-09-24T14:35:00.910Z,18.80
2022-09-24T14:37:31.223Z,18.80
2022-09-24T14:39:59.192Z,18.80
2022-09-24T14:42:45.987Z,18.80
2022-09-24T14:45:25.294Z,18.70
2022-09-24T14:48:06.138Z,18.70
2022-09-24T14:50:36.969Z,18.70
2022-09-24T14:53:11.909Z,18.70
2022-09-24T14:55:39.848Z,18.60
2022-09-24T14:58:24.242Z,18.60
2022-09-24T15:00:54.614Z,18.50
2022-09-24T15:03:28.546Z,18.50
2022-09-24T15:06:02.665Z,18.50
2022-09-24T15:08:29.274Z,18.50
2022-09-24T15:10:57.719Z,18.50
2022-09-24T15:13:25.750Z,18.50
2022-09-24T15:16:23.939Z,18.50
2022-09-24T15:19:09.127Z,18.40
2022-09-24T15:21:35.760Z,18.40
2022-09-24T15:24:02.321Z,18.40
2022-09-24T15:26:30.234Z,18.40
2022-09-24T15:28:59.659Z,18.40
2022-09-24T15:31:26.274Z,18.40
2022-09-24T15:33:53.270Z,18.40
2022-09-24T15:36:20.802Z,18.30
2022-09-24T15:38:51.302Z,18.30
2022-09-24T15:41:20.455Z,18.30
2022-09-24T15:43:47.045Z,18.30
2022-09-24T15:46:13.651Z,18.30
2022-09-24T15:48:40.254Z,18.30
2022-09-24T15:51:11.809Z,18.30
2022-09-24T15:53:41.031Z,18.20
2022-09-24T15:56:08.028Z,18.20
2022-09-24T15:58:34.951Z,18.20
2022-09-24T16:01:01.579Z,18.20
2022-09-24T16:03:29.307Z,18.20
2022-09-24T16:06:01.025Z,18.20
2022-09-24T16:08:27.566Z,18.20
2022-09-24T16:10:54.136Z,18.20
2022-09-24T16:13:23.153Z,18.10
2022-09-24T16:15:49.927Z,18.20
2022-09-24T16:18:17.824Z,18.10
2022-09-24T16:20:46.129Z,18.10
2022-09-24T16:23:14.214Z,18.10
2022-09-24T16:25:55.622Z,18.10
2022-09-24T16:28:22.506Z,18.10
2022-09-24T16:30:49.062Z,18.10
2022-09-24T16:33:17.750Z,18.00
2022-09-24T16:35:44.286Z,18.00
2022-09-24T16:38:11.200Z,18.00
2022-09-24T16:40:38.014Z,18.00
2022-09-24T16:43:04.652Z,18.00
2022-09-24T16:45:31.716Z,18.00
2022-09-24T16:47:58.368Z,18.00
2022-09-24T16:50:25.061Z,17.90
2022-09-24T16:52:54.755Z,17.90
2022-09-24T16:55:24.042Z,17.90
2022-09-24T16:57:53.686Z,17.90
2022-09-24T17:00:20.506Z,17.90
2022-09-24T17:02:47.211Z,17.90
2022-09-24T17:05:13.807Z,17.80
2022-09-24T17:07:40.547Z,17.80
2022-09-24T17:10:13.293Z,17.80
2022-09-24T17:12:41.022Z,17.80
2022-09-24T17:15:10.077Z,17.80
2022-09-24T17:17:44.254Z,17.70
2022-09-24T17:20:15.693Z,17.70
2022-09-24T17:22:44.641Z,17.70
2022-09-24T17:25:11.203Z,17.70
2022-09-24T17:27:39.894Z,17.60
2022-09-24T17:30:07.243Z,17.70
2022-09-24T17:32:33.799Z,17.60
2022-09-24T17:35:00.332Z,17.60
2022-09-24T17:37:27.438Z,17.60
2022-09-24T17:39:56.869Z,17.60
2022-09-24T17:42:25.699Z,17.50
2022-09-24T17:44:52.226Z,17.50
2022-09-24T17:47:18.761Z,17.50
2022-09-24T17:49:45.560Z,17.50
2022-09-24T17:52:13.342Z,17.40
2022-09-24T17:54:44.686Z,17.40
2022-09-24T17:57:11.208Z,17.40
2022-09-24T17:59:39.949Z,17.40
2022-09-24T18:02:06.692Z,17.40
2022-09-24T18:04:38.156Z,17.30
2022-09-24T18:07:04.725Z,17.30
2022-09-24T18:09:31.247Z,17.40
2022-09-24T18:11:58.065Z,17.40
2022-09-24T18:14:27.061Z,17.30
2022-09-24T18:16:55.724Z,17.30
2022-09-24T18:19:22.933Z,17.30
2022-09-24T18:21:51.867Z,17.20
2022-09-24T18:24:18.697Z,17.20
2022-09-24T18:26:48.388Z,17.20
2022-09-24T18:29:17.753Z,17.10
2022-09-24T18:31:44.803Z,17.10
2022-09-24T18:34:13.210Z,17.00
2022-09-24T18:36:40.494Z,17.00
2022-09-24T18:39:11.980Z,16.90
2022-09-24T18:41:39.535Z,16.90
2022-09-24T18:44:06.158Z,16.80
2022-09-24T18:46:33.725Z,16.80
2022-09-24T18:49:00.702Z,16.80
2022-09-24T18:51:29.026Z,16.80
2022-09-24T18:53:56.507Z,16.70
2022-09-24T18:56:24.070Z,16.60
2022-09-24T18:58:57.047Z,16.60
2022-09-24T19:01:23.739Z,16.50
2022-09-24T19:03:50.549Z,16.40
2022-09-24T19:06:17.264Z,16.40
2022-09-24T19:08:43.804Z,16.30
2022-09-24T19:11:11.337Z,16.20
2022-09-24T19:13:38.881Z,16.20
2022-09-24T19:16:06.909Z,16.10
2022-09-24T19:18:34.391Z,16.10
2022-09-24T19:21:01.136Z,16.10
2022-09-24T19:23:27.827Z,16.00
2022-09-24T19:25:59.245Z,16.00
2022-09-24T19:28:25.827Z,16.00
2022-09-24T19:30:53.159Z,16.00
2022-09-24T19:33:19.766Z,16.10
2022-09-24T19:35:54.194Z,16.10
2022-09-24T19:38:28.380Z,16.00
2022-09-24T19:40:55.843Z,16.00
2022-09-24T19:43:22.438Z,16.00
2022-09-24T19:45:58.977Z,16.00
2022-09-24T19:48:26.620Z,16.00
2022-09-24T19:50:53.684Z,16.00
2022-09-24T19:53:20.669Z,16.00
2022-09-24T19:55:47.193Z,16.00
2022-09-24T19:58:16.091Z,15.90
2022-09-24T20:00:43.055Z,15.90
2022-09-24T20:03:11.100Z,16.00
2022-09-24T20:05:40.163Z,15.90
2022-09-24T20:08:06.695Z,15.80
2022-09-24T20:10:35.518Z,15.70
2022-09-24T20:13:02.155Z,15.50
2022-09-24T20:15:29.694Z,15.50
2022-09-24T20:17:56.345Z,15.40
2022-09-24T20:20:25.755Z,15.40
2022-09-24T20:22:52.298Z,15.50
2022-09-24T20:25:18.810Z,15.50
2022-09-24T20:27:51.610Z,15.50
2022-09-24T20:30:23.421Z,15.60
2022-09-24T20:32:50.517Z,15.50
2022-09-24T20:35:17.177Z,15.50
2022-09-24T20:37:43.694Z,15.50
2022-09-24T20:40:10.535Z,15.50
2022-09-24T20:42:38.576Z,15.50
2022-09-24T20:45:10.756Z,15.50
2022-09-24T20:47:38.883Z,15.50
2022-09-24T20:50:05.716Z,15.50
2022-09-24T20:52:33.436Z,15.50
2022-09-24T20:55:02.345Z,15.50
2022-09-24T20:57:28.848Z,15.40
2022-09-24T20:59:57.968Z,15.40
2022-09-24T21:02:24.576Z,15.40
2022-09-24T21:04:53.576Z,15.40
2022-09-24T21:07:22.559Z,15.40
2022-09-24T21:09:49.154Z,15.40
2022-09-24T21:12:15.642Z,15.30
2022-09-24T21:14:42.195Z,15.30
2022-09-24T21:17:10.121Z,15.30
2022-09-24T21:19:36.635Z,15.30
2022-09-24T21:22:03.294Z,15.30
2022-09-24T21:24:31.586Z,15.30
2022-09-24T21:26:59.333Z,15.30
2022-09-24T21:29:28.150Z,15.30
2022-09-24T21:31:54.666Z,15.20
2022-09-24T21:34:23.393Z,15.10
2022-09-24T21:36:53.084Z,15.10
2022-09-24T21:39:20.630Z,15.10
2022-09-24T21:41:54.810Z,15.10
2022-09-24T21:44:21.760Z,15.00
2022-09-24T21:46:52.042Z,15.10
2022-09-24T21:49:21.098Z,15.10
2022-09-24T21:51:47.660Z,15.10
2022-09-24T21:54:16.135Z,15.00
2022-09-24T21:56:43.113Z,15.10
2022-09-24T21:59:35.772Z,15.10
2022-09-24T22:02:08.537Z,15.00
2022-09-24T22:04:35.181Z,15.00
2022-09-24T22:07:02.081Z,15.00
2022-09-24T22:09:32.124Z,15.00
2022-09-24T22:12:00.406Z,15.00
2022-09-24T22:14:27.149Z,15.00
2022-09-24T22:16:54.124Z,14.90
2022-09-24T22:19:20.737Z,15.00
2022-09-24T22:21:47.335Z,15.00
2022-09-24T22:24:14.827Z,15.00
2022-09-24T22:26:41.364Z,14.90
2022-09-24T22:29:08.009Z,14.90
2022-09-24T22:31:34.534Z,14.90
2022-09-24T22:34:19.995Z,14.90
2022-09-24T22:36:47.927Z,14.90
2022-09-24T22:39:15.410Z,15.00
2022-09-24T22:41:44.378Z,14.90
2022-09-24T22:44:13.448Z,14.90
2022-09-24T22:46:41.177Z,14.90
2022-09-24T22:49:07.842Z,14.90
2022-09-24T22:51:38.377Z,14.90
2022-09-24T22:54:05.234Z,14.90
2022-09-24T22:56:31.794Z,14.90
2022-09-24T22:58:59.760Z,14.90
2022-09-24T23:01:31.353Z,14.80
2022-09-24T23:04:00.419Z,14.80
2022-09-24T23:06:26.969Z,14.80
2022-09-24T23:08:54.732Z,14.80
2022-09-24T23:11:23.111Z,14.70
2022-09-24T23:13:53.691Z,14.70
2022-09-24T23:16:21.762Z,14.70
2022-09-24T23:18:49.149Z,14.70
2022-09-24T23:21:16.312Z,14.70
2022-09-24T23:23:45.721Z,14.60
2022-09-24T23:26:17.314Z,14.70
2022-09-24T23:28:44.265Z,14.70
2022-09-24T23:31:11.812Z,14.60
2022-09-24T23:33:41.823Z,14.60
2022-09-24T23:36:11.752Z,14.60
2022-09-24T23:38:41.238Z,14.60
2022-09-24T23:41:11.088Z,14.60
2022-09-24T23:43:37.694Z,14.60
2022-09-24T23:46:04.697Z,14.60
2022-09-24T23:48:31.505Z,14.50
2022-09-24T23:51:01.020Z,14.50
2022-09-24T23:53:27.668Z,14.50
2022-09-24T23:55:54.893Z,14.50
2022-09-24T23:58:22.568Z,14.40
